sensor_id;sensor_type;location;lat;lon;timestamp;temperature;humidity
18141;DHT22;9196;49.194;12.526;2022-07-03T00:02:20;16.20;99.90
18141;DHT22;9196;49.194;12.526;2022-07-03T00:04:47;16.20;99.90
18141;DHT22;9196;49.194;12.526;2022-07-03T00:07:14;16.30;99.90
18141;DHT22;9196;49.194;12.526;2022-07-03T00:09:41;16.20;99.90
18141;DHT22;9196;49.194;12.526;2022-07-03T00:12:09;16.20;99.90
18141;DHT22;9196;49.194;12.526;2022-07-03T00:14:37;16.10;99.90
18141;DHT22;9196;49.194;12.526;2022-07-03T00:17:04;16.10;99.90
18141;DHT22;9196;49.194;12.526;2022-07-03T00:19:30;16.00;99.90
18141;DHT22;9196;49.194;12.526;2022-07-03T00:22:02;15.90;99.90
18141;DHT22;9196;49.194;12.526;2022-07-03T00:24:32;15.90;99.90
18141;DHT22;9196;49.194;12.526;2022-07-03T00:27:01;15.90;99.90
18141;DHT22;9196;49.194;12.526;2022-07-03T00:29:31;15.90;99.90
18141;DHT22;9196;49.194;12.526;2022-07-03T00:32:06;15.80;99.90
18141;DHT22;9196;49.194;12.526;2022-07-03T00:34:34;15.80;99.90
18141;DHT22;9196;49.194;12.526;2022-07-03T00:37:02;15.70;99.90
18141;DHT22;9196;49.194;12.526;2022-07-03T00:39:29;15.70;99.90
18141;DHT22;9196;49.194;12.526;2022-07-03T00:42:01;15.70;99.90
18141;DHT22;9196;49.194;12.526;2022-07-03T00:44:29;15.70;99.90
18141;DHT22;9196;49.194;12.526;2022-07-03T00:46:56;15.70;99.90
18141;DHT22;9196;49.194;12.526;2022-07-03T00:49:27;15.70;99.90
18141;DHT22;9196;49.194;12.526;2022-07-03T00:51:56;15.70;99.90
18141;DHT22;9196;49.194;12.526;2022-07-03T00:54:25;15.60;99.90
18141;DHT22;9196;49.194;12.526;2022-07-03T00:56:54;15.60;99.90
18141;DHT22;9196;49.194;12.526;2022-07-03T00:59:23;15.60;99.90
18141;DHT22;9196;49.194;12.526;2022-07-03T01:01:55;15.50;99.90
18141;DHT22;9196;49.194;12.526;2022-07-03T01:04:36;15.50;99.90
18141;DHT22;9196;49.194;12.526;2022-07-03T01:07:06;15.50;99.90
18141;DHT22;9196;49.194;12.526;2022-07-03T01:09:52;15.50;99.90
18141;DHT22;9196;49.194;12.526;2022-07-03T01:12:26;15.40;99.90
18141;DHT22;9196;49.194;12.526;2022-07-03T01:15:02;15.40;99.90
18141;DHT22;9196;49.194;12.526;2022-07-03T01:17:34;15.30;99.90
18141;DHT22;9196;49.194;12.526;2022-07-03T01:20:07;15.30;99.90
18141;DHT22;9196;49.194;12.526;2022-07-03T01:22:35;15.30;99.90
18141;DHT22;9196;49.194;12.526;2022-07-03T01:25:21;15.30;99.90
18141;DHT22;9196;49.194;12.526;2022-07-03T01:28:10;15.20;99.90
18141;DHT22;9196;49.194;12.526;2022-07-03T01:30:39;15.20;99.90
18141;DHT22;9196;49.194;12.526;2022-07-03T01:33:12;15.10;99.90
18141;DHT22;9196;49.194;12.526;2022-07-03T01:35:47;15.10;99.90
18141;DHT22;9196;49.194;12.526;2022-07-03T01:38:21;15.10;99.90
18141;DHT22;9196;49.194;12.526;2022-07-03T01:40:49;15.00;99.90
18141;DHT22;9196;49.194;12.526;2022-07-03T01:43:19;15.00;99.90
18141;DHT22;9196;49.194;12.526;2022-07-03T01:45:48;14.90;99.90
18141;DHT22;9196;49.194;12.526;2022-07-03T01:48:18;14.90;99.90
18141;DHT22;9196;49.194;12.526;2022-07-03T01:50:46;14.90;99.90
18141;DHT22;9196;49.194;12.526;2022-07-03T01:53:16;14.90;99.90
18141;DHT22;9196;49.194;12.526;2022-07-03T01:55:43;14.90;99.90
18141;DHT22;9196;49.194;12.526;2022-07-03T01:58:11;14.80;99.90
18141;DHT22;9196;49.194;12.526;2022-07-03T02:00:46;14.90;99.90
18141;DHT22;9196;49.194;12.526;2022-07-03T02:03:19;14.80;99.90
18141;DHT22;9196;49.194;12.526;2022-07-03T02:05:48;14.80;99.90
18141;DHT22;9196;49.194;12.526;2022-07-03T02:08:29;14.80;99.90
18141;DHT22;9196;49.194;12.526;2022-07-03T02:11:09;14.80;99.90
18141;DHT22;9196;49.194;12.526;2022-07-03T02:13:38;14.80;99.90
18141;DHT22;9196;49.194;12.526;2022-07-03T02:16:08;14.70;99.90
18141;DHT22;9196;49.194;12.526;2022-07-03T02:18:36;14.70;99.90
18141;DHT22;9196;49.194;12.526;2022-07-03T02:21:07;14.70;99.90
18141;DHT22;9196;49.194;12.526;2022-07-03T02:23:41;14.50;99.90
18141;DHT22;9196;49.194;12.526;2022-07-03T02:26:12;14.50;99.90
18141;DHT22;9196;49.194;12.526;2022-07-03T02:28:58;14.40;99.90
18141;DHT22;9196;49.194;12.526;2022-07-03T02:31:27;14.40;99.90
18141;DHT22;9196;49.194;12.526;2022-07-03T02:33:57;14.40;99.90
18141;DHT22;9196;49.194;12.526;2022-07-03T02:36:28;14.40;99.90
18141;DHT22;9196;49.194;12.526;2022-07-03T02:38:57;14.40;99.90
18141;DHT22;9196;49.194;12.526;2022-07-03T02:41:29;14.40;99.90
18141;DHT22;9196;49.194;12.526;2022-07-03T02:44:08;14.40;99.90
18141;DHT22;9196;49.194;12.526;2022-07-03T02:46:42;14.30;99.90
18141;DHT22;9196;49.194;12.526;2022-07-03T02:49:22;14.30;99.90
18141;DHT22;9196;49.194;12.526;2022-07-03T02:51:57;14.30;99.90
18141;DHT22;9196;49.194;12.526;2022-07-03T02:54:33;14.30;99.90
18141;DHT22;9196;49.194;12.526;2022-07-03T02:57:06;14.30;99.90
18141;DHT22;9196;49.194;12.526;2022-07-03T02:59:45;14.30;99.90
18141;DHT22;9196;49.194;12.526;2022-07-03T03:02:23;14.30;99.90
18141;DHT22;9196;49.194;12.526;2022-07-03T03:04:57;14.20;99.90
18141;DHT22;9196;49.194;12.526;2022-07-03T03:07:29;14.20;99.90
18141;DHT22;9196;49.194;12.526;2022-07-03T03:10:00;14.20;99.90
18141;DHT22;9196;49.194;12.526;2022-07-03T03:12:30;14.20;99.90
18141;DHT22;9196;49.194;12.526;2022-07-03T03:15:01;14.20;99.90
18141;DHT22;9196;49.194;12.526;2022-07-03T03:17:39;14.20;99.90
18141;DHT22;9196;49.194;12.526;2022-07-03T03:20:08;14.20;99.90
18141;DHT22;9196;49.194;12.526;2022-07-03T03:22:51;14.10;99.90
18141;DHT22;9196;49.194;12.526;2022-07-03T03:25:23;14.00;99.90
18141;DHT22;9196;49.194;12.526;2022-07-03T03:27:51;14.00;99.90
18141;DHT22;9196;49.194;12.526;2022-07-03T03:30:18;14.00;99.90
18141;DHT22;9196;49.194;12.526;2022-07-03T03:32:46;13.90;99.90
18141;DHT22;9196;49.194;12.526;2022-07-03T03:35:13;13.80;99.90
18141;DHT22;9196;49.194;12.526;2022-07-03T03:37:40;13.80;99.90
18141;DHT22;9196;49.194;12.526;2022-07-03T03:40:09;13.80;99.90
18141;DHT22;9196;49.194;12.526;2022-07-03T03:42:36;13.80;99.90
18141;DHT22;9196;49.194;12.526;2022-07-03T03:45:03;13.80;99.90
18141;DHT22;9196;49.194;12.526;2022-07-03T03:47:32;13.80;99.90
18141;DHT22;9196;49.194;12.526;2022-07-03T03:50:00;13.90;99.90
18141;DHT22;9196;49.194;12.526;2022-07-03T03:52:28;13.90;99.90
18141;DHT22;9196;49.194;12.526;2022-07-03T03:54:55;14.00;99.90
18141;DHT22;9196;49.194;12.526;2022-07-03T03:57:23;14.00;99.90
18141;DHT22;9196;49.194;12.526;2022-07-03T03:59:50;14.00;99.90
18141;DHT22;9196;49.194;12.526;2022-07-03T04:02:18;14.00;99.90
18141;DHT22;9196;49.194;12.526;2022-07-03T04:04:45;14.00;99.90
18141;DHT22;9196;49.194;12.526;2022-07-03T04:07:13;14.00;99.90
18141;DHT22;9196;49.194;12.526;2022-07-03T04:09:40;14.00;99.90
18141;DHT22;9196;49.194;12.526;2022-07-03T04:12:08;14.10;99.90
18141;DHT22;9196;49.194;12.526;2022-07-03T04:14:34;14.20;99.90
18141;DHT22;9196;49.194;12.526;2022-07-03T04:17:01;14.30;99.90
18141;DHT22;9196;49.194;12.526;2022-07-03T04:19:28;14.40;99.90
18141;DHT22;9196;49.194;12.526;2022-07-03T04:21:55;14.50;99.90
18141;DHT22;9196;49.194;12.526;2022-07-03T04:24:24;14.50;99.90
18141;DHT22;9196;49.194;12.526;2022-07-03T04:26:51;14.50;99.90
18141;DHT22;9196;49.194;12.526;2022-07-03T04:29:18;14.50;99.90
18141;DHT22;9196;49.194;12.526;2022-07-03T04:31:44;14.50;99.90
18141;DHT22;9196;49.194;12.526;2022-07-03T04:34:11;14.40;99.90
18141;DHT22;9196;49.194;12.526;2022-07-03T04:36:38;14.50;99.90
18141;DHT22;9196;49.194;12.526;2022-07-03T04:39:05;14.50;99.90
18141;DHT22;9196;49.194;12.526;2022-07-03T04:41:33;14.60;99.90
18141;DHT22;9196;49.194;12.526;2022-07-03T04:44:00;14.70;99.90
18141;DHT22;9196;49.194;12.526;2022-07-03T04:46:27;14.80;99.90
18141;DHT22;9196;49.194;12.526;2022-07-03T04:48:53;14.90;99.90
18141;DHT22;9196;49.194;12.526;2022-07-03T04:51:20;14.90;99.90
18141;DHT22;9196;49.194;12.526;2022-07-03T04:53:47;15.00;99.90
18141;DHT22;9196;49.194;12.526;2022-07-03T04:56:14;15.10;99.90
18141;DHT22;9196;49.194;12.526;2022-07-03T04:58:42;15.10;99.90
18141;DHT22;9196;49.194;12.526;2022-07-03T05:01:08;15.20;99.90
18141;DHT22;9196;49.194;12.526;2022-07-03T05:03:35;15.30;99.90
18141;DHT22;9196;49.194;12.526;2022-07-03T05:06:02;15.40;99.90
18141;DHT22;9196;49.194;12.526;2022-07-03T05:08:29;15.50;99.90
18141;DHT22;9196;49.194;12.526;2022-07-03T05:10:56;15.50;99.90
18141;DHT22;9196;49.194;12.526;2022-07-03T05:13:22;15.50;99.90
18141;DHT22;9196;49.194;12.526;2022-07-03T05:15:51;15.40;99.90
18141;DHT22;9196;49.194;12.526;2022-07-03T05:18:17;15.40;99.90
18141;DHT22;9196;49.194;12.526;2022-07-03T05:20:44;15.30;99.90
18141;DHT22;9196;49.194;12.526;2022-07-03T05:23:11;15.30;99.90
18141;DHT22;9196;49.194;12.526;2022-07-03T05:25:38;15.40;99.90
18141;DHT22;9196;49.194;12.526;2022-07-03T05:28:04;15.50;99.90
18141;DHT22;9196;49.194;12.526;2022-07-03T05:30:31;15.40;99.90
18141;DHT22;9196;49.194;12.526;2022-07-03T05:33:00;15.40;99.90
18141;DHT22;9196;49.194;12.526;2022-07-03T05:35:26;15.40;99.90
18141;DHT22;9196;49.194;12.526;2022-07-03T05:37:53;15.50;99.90
18141;DHT22;9196;49.194;12.526;2022-07-03T05:40:20;15.60;99.90
18141;DHT22;9196;49.194;12.526;2022-07-03T05:42:47;15.80;99.90
18141;DHT22;9196;49.194;12.526;2022-07-03T05:45:13;15.90;99.90
18141;DHT22;9196;49.194;12.526;2022-07-03T05:47:40;16.00;99.90
18141;DHT22;9196;49.194;12.526;2022-07-03T05:50:09;16.10;99.90
18141;DHT22;9196;49.194;12.526;2022-07-03T05:52:36;16.20;99.90
18141;DHT22;9196;49.194;12.526;2022-07-03T05:55:04;16.30;99.90
18141;DHT22;9196;49.194;12.526;2022-07-03T05:57:31;16.50;99.90
18141;DHT22;9196;49.194;12.526;2022-07-03T05:59:58;16.50;99.90
18141;DHT22;9196;49.194;12.526;2022-07-03T06:02:24;16.60;99.90
18141;DHT22;9196;49.194;12.526;2022-07-03T06:04:51;16.70;99.90
18141;DHT22;9196;49.194;12.526;2022-07-03T06:07:19;16.80;99.90
18141;DHT22;9196;49.194;12.526;2022-07-03T06:09:47;16.80;99.90
18141;DHT22;9196;49.194;12.526;2022-07-03T06:12:14;16.90;99.90
18141;DHT22;9196;49.194;12.526;2022-07-03T06:14:41;17.00;99.90
18141;DHT22;9196;49.194;12.526;2022-07-03T06:17:08;17.10;99.90
18141;DHT22;9196;49.194;12.526;2022-07-03T06:19:34;17.20;99.90
18141;DHT22;9196;49.194;12.526;2022-07-03T06:22:01;17.20;99.90
18141;DHT22;9196;49.194;12.526;2022-07-03T06:24:29;17.30;99.90
18141;DHT22;9196;49.194;12.526;2022-07-03T06:26:56;17.40;99.90
18141;DHT22;9196;49.194;12.526;2022-07-03T06:29:23;17.50;99.90
18141;DHT22;9196;49.194;12.526;2022-07-03T06:31:50;17.60;99.90
18141;DHT22;9196;49.194;12.526;2022-07-03T06:34:17;17.70;99.90
18141;DHT22;9196;49.194;12.526;2022-07-03T06:36:44;17.80;99.90
18141;DHT22;9196;49.194;12.526;2022-07-03T06:39:11;18.00;99.90
18141;DHT22;9196;49.194;12.526;2022-07-03T06:41:39;18.20;99.90
18141;DHT22;9196;49.194;12.526;2022-07-03T06:44:05;18.30;99.90
18141;DHT22;9196;49.194;12.526;2022-07-03T06:46:32;18.60;99.90
18141;DHT22;9196;49.194;12.526;2022-07-03T06:48:59;18.80;99.90
18141;DHT22;9196;49.194;12.526;2022-07-03T06:51:26;18.90;99.90
18141;DHT22;9196;49.194;12.526;2022-07-03T06:53:53;19.10;99.90
18141;DHT22;9196;49.194;12.526;2022-07-03T06:56:19;19.20;99.90
18141;DHT22;9196;49.194;12.526;2022-07-03T06:58:47;19.40;99.90
18141;DHT22;9196;49.194;12.526;2022-07-03T07:01:14;19.60;99.90
18141;DHT22;9196;49.194;12.526;2022-07-03T07:03:41;19.70;99.90
18141;DHT22;9196;49.194;12.526;2022-07-03T07:06:08;19.80;99.90
18141;DHT22;9196;49.194;12.526;2022-07-03T07:08:35;19.90;99.90
18141;DHT22;9196;49.194;12.526;2022-07-03T07:11:02;20.00;99.90
18141;DHT22;9196;49.194;12.526;2022-07-03T07:13:28;20.20;99.90
18141;DHT22;9196;49.194;12.526;2022-07-03T07:15:56;20.30;99.90
18141;DHT22;9196;49.194;12.526;2022-07-03T07:18:23;20.30;99.90
18141;DHT22;9196;49.194;12.526;2022-07-03T07:20:50;20.40;99.90
18141;DHT22;9196;49.194;12.526;2022-07-03T07:23:17;20.50;99.90
18141;DHT22;9196;49.194;12.526;2022-07-03T07:25:43;20.60;99.90
18141;DHT22;9196;49.194;12.526;2022-07-03T07:28:10;20.70;99.90
18141;DHT22;9196;49.194;12.526;2022-07-03T07:30:37;20.80;99.90
18141;DHT22;9196;49.194;12.526;2022-07-03T07:33:06;20.90;99.90
18141;DHT22;9196;49.194;12.526;2022-07-03T07:35:33;21.00;99.90
18141;DHT22;9196;49.194;12.526;2022-07-03T07:38:00;21.20;99.90
18141;DHT22;9196;49.194;12.526;2022-07-03T07:40:27;21.30;99.90
18141;DHT22;9196;49.194;12.526;2022-07-03T07:42:54;21.50;99.90
18141;DHT22;9196;49.194;12.526;2022-07-03T07:45:21;21.60;99.70
18141;DHT22;9196;49.194;12.526;2022-07-03T07:47:47;21.70;99.70
18141;DHT22;9196;49.194;12.526;2022-07-03T07:50:16;21.70;99.70
18141;DHT22;9196;49.194;12.526;2022-07-03T07:52:42;21.90;99.80
18141;DHT22;9196;49.194;12.526;2022-07-03T07:55:09;22.00;99.50
18141;DHT22;9196;49.194;12.526;2022-07-03T07:57:37;22.10;99.30
18141;DHT22;9196;49.194;12.526;2022-07-03T08:00:06;22.20;99.30
18141;DHT22;9196;49.194;12.526;2022-07-03T08:02:33;22.40;99.20
18141;DHT22;9196;49.194;12.526;2022-07-03T08:05:18;22.60;98.80
18141;DHT22;9196;49.194;12.526;2022-07-03T08:08:05;22.70;98.00
18141;DHT22;9196;49.194;12.526;2022-07-03T08:10:38;22.90;98.10
18141;DHT22;9196;49.194;12.526;2022-07-03T08:13:06;22.90;98.10
18141;DHT22;9196;49.194;12.526;2022-07-03T08:15:33;23.00;97.10
18141;DHT22;9196;49.194;12.526;2022-07-03T08:18:01;23.10;97.80
18141;DHT22;9196;49.194;12.526;2022-07-03T08:20:30;23.20;97.40
18141;DHT22;9196;49.194;12.526;2022-07-03T08:22:57;23.30;97.10
18141;DHT22;9196;49.194;12.526;2022-07-03T08:25:24;23.50;96.50
18141;DHT22;9196;49.194;12.526;2022-07-03T08:27:51;23.50;95.50
18141;DHT22;9196;49.194;12.526;2022-07-03T08:30:18;23.70;95.90
18141;DHT22;9196;49.194;12.526;2022-07-03T08:32:46;23.80;96.70
18141;DHT22;9196;49.194;12.526;2022-07-03T08:35:13;23.90;94.50
18141;DHT22;9196;49.194;12.526;2022-07-03T08:37:41;24.00;94.50
18141;DHT22;9196;49.194;12.526;2022-07-03T08:40:10;24.00;94.70
18141;DHT22;9196;49.194;12.526;2022-07-03T08:42:38;24.00;93.80
18141;DHT22;9196;49.194;12.526;2022-07-03T08:45:13;24.00;93.90
18141;DHT22;9196;49.194;12.526;2022-07-03T08:47:42;24.10;94.40
18141;DHT22;9196;49.194;12.526;2022-07-03T08:50:11;24.30;93.90
18141;DHT22;9196;49.194;12.526;2022-07-03T08:52:38;24.40;94.30
18141;DHT22;9196;49.194;12.526;2022-07-03T08:55:08;24.50;94.10
18141;DHT22;9196;49.194;12.526;2022-07-03T08:57:36;24.50;92.00
18141;DHT22;9196;49.194;12.526;2022-07-03T09:00:06;24.60;92.20
18141;DHT22;9196;49.194;12.526;2022-07-03T09:02:34;24.70;93.60
18141;DHT22;9196;49.194;12.526;2022-07-03T09:05:01;24.80;92.30
18141;DHT22;9196;49.194;12.526;2022-07-03T09:07:34;24.90;92.00
18141;DHT22;9196;49.194;12.526;2022-07-03T09:10:02;24.80;92.00
18141;DHT22;9196;49.194;12.526;2022-07-03T09:12:31;24.90;91.50
18141;DHT22;9196;49.194;12.526;2022-07-03T09:14:58;24.90;91.40
18141;DHT22;9196;49.194;12.526;2022-07-03T09:17:25;25.00;90.90
18141;DHT22;9196;49.194;12.526;2022-07-03T09:19:52;25.10;90.40
18141;DHT22;9196;49.194;12.526;2022-07-03T09:22:20;25.10;90.50
18141;DHT22;9196;49.194;12.526;2022-07-03T09:24:48;25.10;91.80
18141;DHT22;9196;49.194;12.526;2022-07-03T09:27:17;25.30;90.90
18141;DHT22;9196;49.194;12.526;2022-07-03T09:29:57;25.40;90.80
18141;DHT22;9196;49.194;12.526;2022-07-03T09:32:25;25.50;90.60
18141;DHT22;9196;49.194;12.526;2022-07-03T09:35:16;25.40;90.40
18141;DHT22;9196;49.194;12.526;2022-07-03T09:37:52;25.60;90.70
18141;DHT22;9196;49.194;12.526;2022-07-03T09:40:20;25.70;91.60
18141;DHT22;9196;49.194;12.526;2022-07-03T09:43:00;25.90;89.20
18141;DHT22;9196;49.194;12.526;2022-07-03T09:45:48;25.90;91.10
18141;DHT22;9196;49.194;12.526;2022-07-03T09:48:28;25.90;88.90
18141;DHT22;9196;49.194;12.526;2022-07-03T09:51:11;25.90;89.00
18141;DHT22;9196;49.194;12.526;2022-07-03T09:53:46;25.80;88.90
18141;DHT22;9196;49.194;12.526;2022-07-03T09:56:13;25.80;89.20
18141;DHT22;9196;49.194;12.526;2022-07-03T09:58:47;26.00;90.20
18141;DHT22;9196;49.194;12.526;2022-07-03T10:01:26;26.10;87.10
18141;DHT22;9196;49.194;12.526;2022-07-03T10:03:54;26.10;88.40
18141;DHT22;9196;49.194;12.526;2022-07-03T10:06:21;26.20;87.20
18141;DHT22;9196;49.194;12.526;2022-07-03T10:08:47;26.20;88.30
18141;DHT22;9196;49.194;12.526;2022-07-03T10:11:16;26.20;86.30
18141;DHT22;9196;49.194;12.526;2022-07-03T10:13:43;26.20;87.60
18141;DHT22;9196;49.194;12.526;2022-07-03T10:16:10;26.20;86.60
18141;DHT22;9196;49.194;12.526;2022-07-03T10:18:39;26.20;87.00
18141;DHT22;9196;49.194;12.526;2022-07-03T10:21:08;26.40;85.90
18141;DHT22;9196;49.194;12.526;2022-07-03T10:23:36;26.50;86.70
18141;DHT22;9196;49.194;12.526;2022-07-03T10:26:04;26.60;84.30
18141;DHT22;9196;49.194;12.526;2022-07-03T10:28:36;26.70;84.30
18141;DHT22;9196;49.194;12.526;2022-07-03T10:31:03;26.60;82.50
18141;DHT22;9196;49.194;12.526;2022-07-03T10:33:30;26.60;82.00
18141;DHT22;9196;49.194;12.526;2022-07-03T10:36:00;26.70;78.50
18141;DHT22;9196;49.194;12.526;2022-07-03T10:38:36;26.70;79.30
18141;DHT22;9196;49.194;12.526;2022-07-03T10:41:09;26.70;78.10
18141;DHT22;9196;49.194;12.526;2022-07-03T10:43:55;26.70;77.20
18141;DHT22;9196;49.194;12.526;2022-07-03T10:46:39;26.90;76.10
18141;DHT22;9196;49.194;12.526;2022-07-03T10:49:06;26.90;75.60
18141;DHT22;9196;49.194;12.526;2022-07-03T10:51:53;27.00;80.00
18141;DHT22;9196;49.194;12.526;2022-07-03T10:54:21;27.00;79.10
18141;DHT22;9196;49.194;12.526;2022-07-03T10:57:16;27.00;79.60
18141;DHT22;9196;49.194;12.526;2022-07-03T11:00:00;27.10;80.40
18141;DHT22;9196;49.194;12.526;2022-07-03T11:02:29;27.30;75.70
18141;DHT22;9196;49.194;12.526;2022-07-03T11:05:22;27.30;76.90
18141;DHT22;9196;49.194;12.526;2022-07-03T11:08:14;27.30;75.60
18141;DHT22;9196;49.194;12.526;2022-07-03T11:10:43;27.40;76.50
18141;DHT22;9196;49.194;12.526;2022-07-03T11:13:17;27.40;74.00
18141;DHT22;9196;49.194;12.526;2022-07-03T11:15:49;27.50;76.20
18141;DHT22;9196;49.194;12.526;2022-07-03T11:18:26;27.50;74.70
18141;DHT22;9196;49.194;12.526;2022-07-03T11:21:26;27.30;74.60
18141;DHT22;9196;49.194;12.526;2022-07-03T11:27:27;27.50;75.00
18141;DHT22;9196;49.194;12.526;2022-07-03T11:30:00;27.50;74.90
18141;DHT22;9196;49.194;12.526;2022-07-03T11:32:50;27.40;75.30
18141;DHT22;9196;49.194;12.526;2022-07-03T11:35:48;27.20;76.70
18141;DHT22;9196;49.194;12.526;2022-07-03T11:38:20;27.30;77.40
18141;DHT22;9196;49.194;12.526;2022-07-03T11:40:51;27.50;78.20
18141;DHT22;9196;49.194;12.526;2022-07-03T11:43:18;27.70;75.00
18141;DHT22;9196;49.194;12.526;2022-07-03T11:45:46;27.80;77.30
18141;DHT22;9196;49.194;12.526;2022-07-03T11:48:14;27.80;74.10
18141;DHT22;9196;49.194;12.526;2022-07-03T11:50:43;27.70;74.30
18141;DHT22;9196;49.194;12.526;2022-07-03T11:53:22;27.80;75.10
18141;DHT22;9196;49.194;12.526;2022-07-03T11:55:55;27.90;75.60
18141;DHT22;9196;49.194;12.526;2022-07-03T11:58:23;28.00;75.70
18141;DHT22;9196;49.194;12.526;2022-07-03T12:00:50;28.10;75.50
18141;DHT22;9196;49.194;12.526;2022-07-03T12:03:23;28.10;74.30
18141;DHT22;9196;49.194;12.526;2022-07-03T12:05:52;28.10;73.40
18141;DHT22;9196;49.194;12.526;2022-07-03T12:08:27;28.10;74.40
18141;DHT22;9196;49.194;12.526;2022-07-03T12:11:03;28.20;73.40
18141;DHT22;9196;49.194;12.526;2022-07-03T12:13:32;28.30;72.90
18141;DHT22;9196;49.194;12.526;2022-07-03T12:16:07;28.30;73.10
18141;DHT22;9196;49.194;12.526;2022-07-03T12:18:48;28.30;70.20
18141;DHT22;9196;49.194;12.526;2022-07-03T12:21:17;28.40;72.00
18141;DHT22;9196;49.194;12.526;2022-07-03T12:23:46;28.50;71.90
18141;DHT22;9196;49.194;12.526;2022-07-03T12:26:27;28.60;73.50
18141;DHT22;9196;49.194;12.526;2022-07-03T12:28:56;28.60;71.80
18141;DHT22;9196;49.194;12.526;2022-07-03T12:31:23;28.70;74.60
18141;DHT22;9196;49.194;12.526;2022-07-03T12:33:50;28.90;72.40
18141;DHT22;9196;49.194;12.526;2022-07-03T12:36:17;28.80;74.10
18141;DHT22;9196;49.194;12.526;2022-07-03T12:38:47;28.80;74.60
18141;DHT22;9196;49.194;12.526;2022-07-03T12:41:16;29.10;73.10
18141;DHT22;9196;49.194;12.526;2022-07-03T12:43:46;29.30;74.20
18141;DHT22;9196;49.194;12.526;2022-07-03T12:46:20;29.70;75.30
18141;DHT22;9196;49.194;12.526;2022-07-03T12:48:49;29.60;72.80
18141;DHT22;9196;49.194;12.526;2022-07-03T12:51:17;29.70;69.70
18141;DHT22;9196;49.194;12.526;2022-07-03T12:54:02;29.70;69.20
18141;DHT22;9196;49.194;12.526;2022-07-03T12:56:30;29.50;70.50
18141;DHT22;9196;49.194;12.526;2022-07-03T12:58:57;29.70;72.40
18141;DHT22;9196;49.194;12.526;2022-07-03T13:01:41;29.90;67.50
18141;DHT22;9196;49.194;12.526;2022-07-03T13:04:10;29.70;68.40
18141;DHT22;9196;49.194;12.526;2022-07-03T13:06:40;29.80;68.00
18141;DHT22;9196;49.194;12.526;2022-07-03T13:09:07;30.00;69.50
18141;DHT22;9196;49.194;12.526;2022-07-03T13:11:38;29.90;68.90
18141;DHT22;9196;49.194;12.526;2022-07-03T13:14:07;29.70;70.30
18141;DHT22;9196;49.194;12.526;2022-07-03T13:16:40;29.60;69.60
18141;DHT22;9196;49.194;12.526;2022-07-03T13:19:09;29.60;70.30
18141;DHT22;9196;49.194;12.526;2022-07-03T13:21:36;29.50;68.20
18141;DHT22;9196;49.194;12.526;2022-07-03T13:24:04;29.60;67.00
18141;DHT22;9196;49.194;12.526;2022-07-03T13:26:31;29.60;67.80
18141;DHT22;9196;49.194;12.526;2022-07-03T13:28:59;29.90;68.80
18141;DHT22;9196;49.194;12.526;2022-07-03T13:31:26;30.00;68.30
18141;DHT22;9196;49.194;12.526;2022-07-03T13:33:53;30.00;66.90
18141;DHT22;9196;49.194;12.526;2022-07-03T13:36:20;30.10;68.60
18141;DHT22;9196;49.194;12.526;2022-07-03T13:38:46;30.10;65.90
18141;DHT22;9196;49.194;12.526;2022-07-03T13:41:13;30.00;66.70
18141;DHT22;9196;49.194;12.526;2022-07-03T13:43:40;29.90;66.50
18141;DHT22;9196;49.194;12.526;2022-07-03T13:46:08;30.00;65.40
18141;DHT22;9196;49.194;12.526;2022-07-03T13:48:35;30.20;65.40
18141;DHT22;9196;49.194;12.526;2022-07-03T13:51:02;30.40;63.70
18141;DHT22;9196;49.194;12.526;2022-07-03T13:53:28;30.60;64.10
18141;DHT22;9196;49.194;12.526;2022-07-03T13:55:55;30.60;62.20
18141;DHT22;9196;49.194;12.526;2022-07-03T13:58:24;30.40;64.20
18141;DHT22;9196;49.194;12.526;2022-07-03T14:00:50;30.20;64.00
18141;DHT22;9196;49.194;12.526;2022-07-03T14:03:19;30.30;63.00
18141;DHT22;9196;49.194;12.526;2022-07-03T14:05:46;30.40;65.70
18141;DHT22;9196;49.194;12.526;2022-07-03T14:08:13;30.40;63.80
18141;DHT22;9196;49.194;12.526;2022-07-03T14:10:40;30.40;62.00
18141;DHT22;9196;49.194;12.526;2022-07-03T14:13:07;30.40;62.90
18141;DHT22;9196;49.194;12.526;2022-07-03T14:15:34;30.40;63.40
18141;DHT22;9196;49.194;12.526;2022-07-03T14:18:00;30.40;63.10
18141;DHT22;9196;49.194;12.526;2022-07-03T14:20:29;30.50;60.90
18141;DHT22;9196;49.194;12.526;2022-07-03T14:22:56;30.40;60.90
18141;DHT22;9196;49.194;12.526;2022-07-03T14:25:23;30.40;60.90
18141;DHT22;9196;49.194;12.526;2022-07-03T14:27:50;30.40;61.50
18141;DHT22;9196;49.194;12.526;2022-07-03T14:30:33;30.40;61.50
18141;DHT22;9196;49.194;12.526;2022-07-03T14:33:18;30.30;62.90
18141;DHT22;9196;49.194;12.526;2022-07-03T14:35:46;30.30;62.20
18141;DHT22;9196;49.194;12.526;2022-07-03T14:38:12;30.60;61.70
18141;DHT22;9196;49.194;12.526;2022-07-03T14:40:39;30.90;60.20
18141;DHT22;9196;49.194;12.526;2022-07-03T14:43:06;30.70;60.60
18141;DHT22;9196;49.194;12.526;2022-07-03T14:45:33;30.80;60.00
18141;DHT22;9196;49.194;12.526;2022-07-03T14:47:59;31.00;60.70
18141;DHT22;9196;49.194;12.526;2022-07-03T14:50:26;31.10;58.10
18141;DHT22;9196;49.194;12.526;2022-07-03T14:52:54;31.40;59.30
18141;DHT22;9196;49.194;12.526;2022-07-03T14:55:21;31.60;57.90
18141;DHT22;9196;49.194;12.526;2022-07-03T14:57:54;31.40;56.60
18141;DHT22;9196;49.194;12.526;2022-07-03T15:00:26;31.30;57.70
18141;DHT22;9196;49.194;12.526;2022-07-03T15:03:03;31.30;57.50
18141;DHT22;9196;49.194;12.526;2022-07-03T15:05:31;31.40;57.90
18141;DHT22;9196;49.194;12.526;2022-07-03T15:08:04;31.60;58.80
18141;DHT22;9196;49.194;12.526;2022-07-03T15:10:35;31.90;56.00
18141;DHT22;9196;49.194;12.526;2022-07-03T15:13:03;32.10;56.20
18141;DHT22;9196;49.194;12.526;2022-07-03T15:15:31;32.00;54.60
18141;DHT22;9196;49.194;12.526;2022-07-03T15:17:58;31.40;55.30
18141;DHT22;9196;49.194;12.526;2022-07-03T15:20:29;31.20;56.40
18141;DHT22;9196;49.194;12.526;2022-07-03T15:22:57;31.30;56.70
18141;DHT22;9196;49.194;12.526;2022-07-03T15:25:28;31.40;55.30
18141;DHT22;9196;49.194;12.526;2022-07-03T15:27:55;31.50;54.40
18141;DHT22;9196;49.194;12.526;2022-07-03T15:30:23;31.40;54.90
18141;DHT22;9196;49.194;12.526;2022-07-03T15:32:51;31.30;55.00
18141;DHT22;9196;49.194;12.526;2022-07-03T15:35:19;31.20;54.60
18141;DHT22;9196;49.194;12.526;2022-07-03T15:37:59;31.10;54.90
18141;DHT22;9196;49.194;12.526;2022-07-03T15:40:32;31.20;54.10
18141;DHT22;9196;49.194;12.526;2022-07-03T15:43:13;31.30;55.00
18141;DHT22;9196;49.194;12.526;2022-07-03T15:45:48;31.50;54.20
18141;DHT22;9196;49.194;12.526;2022-07-03T15:48:23;31.50;53.70
18141;DHT22;9196;49.194;12.526;2022-07-03T15:51:02;31.20;54.50
18141;DHT22;9196;49.194;12.526;2022-07-03T15:53:39;30.90;54.10